< < Back
Terminal Aerodrome Forecast


Current Version              Previous Versions:   1  2  3  4  5  6  7  8  9  

Terminal Aerodrome Forecast

238
FTUS44 KBMX 232300 CCA
TAFTCL
TAF COR
KTCL 232344Z 2400/2424 VRB04KT P6SM VCTS SCT025 BKN060CB
     FM240200 00000KT P6SM SCT050 BKN150
     FM240800 00000KT 3SM BR SCT010 SCT035
     FM241500 28006KT P6SM VCTS BKN040CB=

Latest METAR

928
SAUS70 KWBC 240200 RRB
MTRTCL
METAR KTCL 240153Z AUTO 13003KT 10SM CLR 24/22 A2999 RMK AO2 SLP152
T02390222


USA.gov is the U.S. government's official web portal to all federal, state and local government web resources and services.